<?xml version='1.0' encoding='UTF-8' standalone='yes' ?>
<gpx version="1.1" creator="nl.sogeti.android.gpstracker" xsi:schemaLocation="http://www.topografix.com/GPX/1/1 http://www.topografix.com/gpx/1/1/gpx.xsd" xmlns="http://www.topografix.com/GPX/1/1" xmlns:xsi="http://www.w3.org/2001/XMLSchema-instance" xmlns:gpx10="http://www.topografix.com/GPX/1/0" xmlns:ogt10="http://gpstracker.android.sogeti.nl/GPX/1/0">
<metadata>
<time>2011-03-09T08:49:56Z</time>
</metadata>
<trk>
<name>Track 2011-03-09 09:49</name>
<trkseg>
<trkpt lat="46.86680343" lon="7.54694733">
<ele>576.4000244140625</ele>
<time>2011-03-09T08:54:57Z</time>
<extensions>
<gpx10:speed>0.25</gpx10:speed>
<ogt10:accuracy>9.0</ogt10:accuracy>
<gpx10:course>319.1000061035156</gpx10:course></extensions>
</trkpt>
<trkpt lat="46.86650141" lon="7.54722988">
<ele>571.7999877929688</ele>
<time>2011-03-09T08:55:00Z</time>
<extensions>
<gpx10:speed>1.5</gpx10:speed>
<ogt10:accuracy>34.0</ogt10:accuracy>
<gpx10:course>140.0</gpx10:course></extensions>
</trkpt>
<trkpt lat="46.86614027" lon="7.54735674">
<ele>572.0999755859375</ele>
<time>2011-03-09T08:55:05Z</time>
<extensions>
<gpx10:speed>2.25</gpx10:speed>
<ogt10:accuracy>33.0</ogt10:accuracy>
<gpx10:course>162.39999389648438</gpx10:course></extensions>
</trkpt>
<trkpt lat="46.86588841" lon="7.54754839">
<ele>571.5999755859375</ele>
<time>2011-03-09T08:55:09Z</time>
<extensions>
<gpx10:speed>2.0</gpx10:speed>
<ogt10:accuracy>31.0</ogt10:accuracy>
<gpx10:course>162.1999969482422</gpx10:course></extensions>
</trkpt>
<trkpt lat="46.86556147" lon="7.54764489">
<ele>568.2000122070313</ele>
<time>2011-03-09T08:55:20Z</time>
<extensions>
<gpx10:speed>1.75</gpx10:speed>
<ogt10:accuracy>24.0</ogt10:accuracy>
<gpx10:course>166.60000610351563</gpx10:course></extensions>
</trkpt>
<trkpt lat="46.86481584" lon="7.54839835">
<ele>567.5999755859375</ele>
<time>2011-03-09T08:56:07Z</time>
<extensions>
<gpx10:speed>1.25</gpx10:speed>
<ogt10:accuracy>25.0</ogt10:accuracy>
<gpx10:course>117.69999694824219</gpx10:course></extensions>
</trkpt>
<trkpt lat="46.8644792" lon="7.54850489">
<ele>565.0999755859375</ele>
<time>2011-03-09T08:56:38Z</time>
<extensions>
<gpx10:speed>0.5</gpx10:speed>
<ogt10:accuracy>21.0</ogt10:accuracy>
<gpx10:course>159.5</gpx10:course></extensions>
</trkpt>
<trkpt lat="46.86065679" lon="7.5513074">
<ele>570.9000244140625</ele>
<time>2011-03-09T09:02:19Z</time>
<extensions>
<gpx10:speed>0.75</gpx10:speed>
<ogt10:accuracy>17.0</ogt10:accuracy>
<gpx10:course>161.10000610351563</gpx10:course></extensions>
</trkpt>
<trkpt lat="46.85648824" lon="7.55378235">
<ele>578.5</ele>
<time>2011-03-09T09:07:58Z</time>
<extensions>
<gpx10:speed>0.75</gpx10:speed>
<ogt10:accuracy>16.0</ogt10:accuracy>
<gpx10:course>181.10000610351563</gpx10:course></extensions>
</trkpt>
<trkpt lat="46.85617469" lon="7.55400738">
<ele>580.9000244140625</ele>
<time>2011-03-09T09:08:17Z</time>
<extensions>
<gpx10:speed>1.5</gpx10:speed>
<ogt10:accuracy>17.0</ogt10:accuracy>
<gpx10:course>164.5</gpx10:course></extensions>
</trkpt>
<trkpt lat="46.85601769" lon="7.55401528">
<ele>583.5</ele>
<time>2011-03-09T09:08:29Z</time>
<extensions>
<gpx10:speed>0.75</gpx10:speed>
<ogt10:accuracy>15.0</ogt10:accuracy>
<gpx10:course>163.1999969482422</gpx10:course></extensions>
</trkpt>
<trkpt lat="46.85586467" lon="7.55413622">
<ele>582.9000244140625</ele>
<time>2011-03-09T09:08:48Z</time>
<extensions>
<gpx10:speed>0.75</gpx10:speed>
<ogt10:accuracy>14.0</ogt10:accuracy>
<gpx10:course>154.10000610351563</gpx10:course></extensions>
</trkpt>
<trkpt lat="46.85544156" lon="7.55453366">
<ele>580.9000244140625</ele>
<time>2011-03-09T09:09:18Z</time>
<extensions>
<gpx10:speed>1.25</gpx10:speed>
<ogt10:accuracy>15.0</ogt10:accuracy>
<gpx10:course>167.89999389648438</gpx10:course></extensions>
</trkpt>
<trkpt lat="46.85522471" lon="7.5546635">
<ele>580.5</ele>
<time>2011-03-09T09:09:33Z</time>
<extensions>
<gpx10:speed>1.0</gpx10:speed>
<ogt10:accuracy>17.0</ogt10:accuracy>
<gpx10:course>153.3000030517578</gpx10:course></extensions>
</trkpt>
<trkpt lat="46.85503135" lon="7.55467695">
<ele>579.7000122070313</ele>
<time>2011-03-09T09:09:49Z</time>
<extensions>
<gpx10:speed>1.0</gpx10:speed>
<ogt10:accuracy>15.0</ogt10:accuracy>
<gpx10:course>160.0</gpx10:course></extensions>
</trkpt>
<trkpt lat="46.85491947" lon="7.55481821">
<ele>577.2000122070313</ele>
<time>2011-03-09T09:10:05Z</time>
<extensions>
<gpx10:speed>0.75</gpx10:speed>
<ogt10:accuracy>16.0</ogt10:accuracy>
<gpx10:course>134.1999969482422</gpx10:course></extensions>
</trkpt>
<trkpt lat="46.85477594" lon="7.55499469">
<ele>576.0999755859375</ele>
<time>2011-03-09T09:10:14Z</time>
<extensions>
<gpx10:speed>0.75</gpx10:speed>
<ogt10:accuracy>14.0</ogt10:accuracy>
<gpx10:course>149.5</gpx10:course></extensions>
</trkpt>
<trkpt lat="46.85432486" lon="7.55511001">
<ele>577.9000244140625</ele>
<time>2011-03-09T09:10:45Z</time>
<extensions>
<gpx10:speed>1.0</gpx10:speed>
<ogt10:accuracy>14.0</ogt10:accuracy>
<gpx10:course>181.8000030517578</gpx10:course></extensions>
</trkpt>
<trkpt lat="46.85419453" lon="7.55520085">
<ele>579.5999755859375</ele>
<time>2011-03-09T09:10:56Z</time>
<extensions>
<gpx10:speed>0.75</gpx10:speed>
<ogt10:accuracy>13.0</ogt10:accuracy>
<gpx10:course>158.89999389648438</gpx10:course></extensions>
</trkpt>
<trkpt lat="46.85415213" lon="7.55536306">
<ele>578.4000244140625</ele>
<time>2011-03-09T09:11:13Z</time>
<extensions>
<gpx10:speed>0.25</gpx10:speed>
<ogt10:accuracy>13.0</ogt10:accuracy>
<gpx10:course>158.89999389648438</gpx10:course></extensions>
</trkpt>
<trkpt lat="46.85403673" lon="7.55539085">
<ele>577.7000122070313</ele>
<time>2011-03-09T09:11:35Z</time>
<extensions>
<gpx10:speed>1.25</gpx10:speed>
<ogt10:accuracy>13.0</ogt10:accuracy>
<gpx10:course>177.0</gpx10:course></extensions>
</trkpt>
<trkpt lat="46.85386728" lon="7.55527528">
<ele>575.0</ele>
<time>2011-03-09T09:11:48Z</time>
<extensions>
<gpx10:speed>1.0</gpx10:speed>
<ogt10:accuracy>14.0</ogt10:accuracy>
<gpx10:course>211.5</gpx10:course></extensions>
</trkpt>
<trkpt lat="46.85375622" lon="7.55536361">
<ele>575.7999877929688</ele>
<time>2011-03-09T09:12:01Z</time>
<extensions>
<gpx10:speed>0.5</gpx10:speed>
<ogt10:accuracy>12.0</ogt10:accuracy>
<gpx10:course>160.89999389648438</gpx10:course></extensions>
</trkpt>
<trkpt lat="46.8535986" lon="7.55536632">
<ele>574.9000244140625</ele>
<time>2011-03-09T09:12:10Z</time>
<extensions>
<gpx10:speed>0.75</gpx10:speed>
<ogt10:accuracy>14.0</ogt10:accuracy>
<gpx10:course>155.8000030517578</gpx10:course></extensions>
</trkpt>
<trkpt lat="46.85344265" lon="7.55536542">
<ele>572.5999755859375</ele>
<time>2011-03-09T09:12:20Z</time>
<extensions>
<gpx10:speed>1.0</gpx10:speed>
<ogt10:accuracy>14.0</ogt10:accuracy>
<gpx10:course>201.1999969482422</gpx10:course></extensions>
</trkpt>
<trkpt lat="46.85336106" lon="7.55554666">
<ele>572.4000244140625</ele>
<time>2011-03-09T09:12:29Z</time>
<extensions>
<gpx10:speed>1.25</gpx10:speed>
<ogt10:accuracy>14.0</ogt10:accuracy>
<gpx10:course>157.6999969482422</gpx10:course></extensions>
</trkpt>
<trkpt lat="46.85321485" lon="7.55578183">
<ele>569.4000244140625</ele>
<time>2011-03-09T09:12:47Z</time>
<extensions>
<gpx10:speed>0.75</gpx10:speed>
<ogt10:accuracy>13.0</ogt10:accuracy>
<gpx10:course>144.10000610351563</gpx10:course></extensions>
</trkpt>
<trkpt lat="46.85304921" lon="7.55587325">
<ele>572.2999877929688</ele>
<time>2011-03-09T09:12:58Z</time>
<extensions>
<gpx10:speed>0.75</gpx10:speed>
<ogt10:accuracy>12.0</ogt10:accuracy>
<gpx10:course>134.10000610351563</gpx10:course></extensions>
</trkpt>
<trkpt lat="46.85290689" lon="7.55586614">
<ele>570.0999755859375</ele>
<time>2011-03-09T09:13:10Z</time>
<extensions>
<gpx10:speed>0.75</gpx10:speed>
<ogt10:accuracy>10.0</ogt10:accuracy>
<gpx10:course>182.0</gpx10:course></extensions>
</trkpt>
<trkpt lat="46.85256376" lon="7.55579006">
<ele>574.5999755859375</ele>
<time>2011-03-09T09:13:38Z</time>
<extensions>
<gpx10:speed>0.5</gpx10:speed>
<ogt10:accuracy>10.0</ogt10:accuracy>
<gpx10:course>202.89999389648438</gpx10:course></extensions>
</trkpt>
<trkpt lat="46.85074898" lon="7.55622003">
<ele>574.2000122070313</ele>
<time>2011-03-09T09:17:17Z</time>
<extensions>
<gpx10:speed>1.0</gpx10:speed>
<ogt10:accuracy>10.0</ogt10:accuracy>
<gpx10:course>142.5</gpx10:course></extensions>
</trkpt>
<trkpt lat="46.84556461" lon="7.55726929">
<ele>575.2000122070313</ele>
<time>2011-03-09T09:24:00Z</time>
<extensions>
<gpx10:speed>1.25</gpx10:speed>
<ogt10:accuracy>10.0</ogt10:accuracy>
<gpx10:course>195.6999969482422</gpx10:course></extensions>
</trkpt>
<trkpt lat="46.84546348" lon="7.55722626">
<ele>575.5</ele>
<time>2011-03-09T09:24:07Z</time>
<extensions>
<gpx10:speed>1.25</gpx10:speed>
<ogt10:accuracy>10.0</ogt10:accuracy>
<gpx10:course>210.89999389648438</gpx10:course></extensions>
</trkpt>
<trkpt lat="46.84284297" lon="7.55823462">
<ele>571.7000122070313</ele>
<time>2011-03-09T09:28:34Z</time>
<extensions>
<gpx10:speed>0.5</gpx10:speed>
<ogt10:accuracy>10.0</ogt10:accuracy>
<gpx10:course>161.39999389648438</gpx10:course></extensions>
</trkpt>
<trkpt lat="46.83775303" lon="7.56002557">
<ele>578.0</ele>
<time>2011-03-09T09:42:17Z</time>
<extensions>
<gpx10:speed>1.25</gpx10:speed>
<ogt10:accuracy>11.0</ogt10:accuracy>
<gpx10:course>175.6999969482422</gpx10:course></extensions>
</trkpt>
<trkpt lat="46.83761115" lon="7.5601342">
<ele>576.2999877929688</ele>
<time>2011-03-09T09:42:27Z</time>
<extensions>
<gpx10:speed>1.25</gpx10:speed>
<ogt10:accuracy>11.0</ogt10:accuracy>
<gpx10:course>152.8000030517578</gpx10:course></extensions>
</trkpt>
<trkpt lat="46.83751785" lon="7.5601799">
<ele>574.0999755859375</ele>
<time>2011-03-09T09:42:38Z</time>
<extensions>
<gpx10:speed>1.0</gpx10:speed>
<ogt10:accuracy>10.0</ogt10:accuracy>
<gpx10:course>179.10000610351563</gpx10:course></extensions>
</trkpt>
<trkpt lat="46.83715623" lon="7.56034138">
<ele>576.7000122070313</ele>
<time>2011-03-09T09:43:01Z</time>
<extensions>
<gpx10:speed>1.75</gpx10:speed>
<ogt10:accuracy>11.0</ogt10:accuracy>
<gpx10:course>180.1999969482422</gpx10:course></extensions>
</trkpt>
<trkpt lat="46.83674504" lon="7.56043037">
<ele>572.5</ele>
<time>2011-03-09T09:43:38Z</time>
<extensions>
<gpx10:speed>1.0</gpx10:speed>
<ogt10:accuracy>10.0</ogt10:accuracy>
<gpx10:course>181.8000030517578</gpx10:course></extensions>
</trkpt>
<trkpt lat="46.83665226" lon="7.56044677">
<ele>575.7999877929688</ele>
<time>2011-03-09T09:43:47Z</time>
<extensions>
<gpx10:speed>0.75</gpx10:speed>
<ogt10:accuracy>10.0</ogt10:accuracy>
<gpx10:course>173.89999389648438</gpx10:course></extensions>
</trkpt>
<trkpt lat="46.83618778" lon="7.56077319">
<ele>575.7999877929688</ele>
<time>2011-03-09T09:44:25Z</time>
<extensions>
<gpx10:speed>0.75</gpx10:speed>
<ogt10:accuracy>11.0</ogt10:accuracy>
<gpx10:course>171.89999389648438</gpx10:course></extensions>
</trkpt>
<trkpt lat="46.83602072" lon="7.56085301">
<ele>577.9000244140625</ele>
<time>2011-03-09T09:44:34Z</time>
<extensions>
<gpx10:speed>1.0</gpx10:speed>
<ogt10:accuracy>10.0</ogt10:accuracy>
<gpx10:course>179.89999389648438</gpx10:course></extensions>
</trkpt>
<trkpt lat="46.83589489" lon="7.56093267">
<ele>576.5999755859375</ele>
<time>2011-03-09T09:44:48Z</time>
<extensions>
<gpx10:speed>0.75</gpx10:speed>
<ogt10:accuracy>12.0</ogt10:accuracy>
<gpx10:course>165.10000610351563</gpx10:course></extensions>
</trkpt>
<trkpt lat="46.83567819" lon="7.56112573">
<ele>573.5</ele>
<time>2011-03-09T09:45:01Z</time>
<extensions>
<gpx10:speed>1.5</gpx10:speed>
<ogt10:accuracy>13.0</ogt10:accuracy>
<gpx10:course>166.0</gpx10:course></extensions>
</trkpt>
<trkpt lat="46.83545827" lon="7.56123377">
<ele>576.2000122070313</ele>
<time>2011-03-09T09:45:34Z</time>
<extensions>
<gpx10:speed>1.0</gpx10:speed>
<ogt10:accuracy>11.0</ogt10:accuracy>
<gpx10:course>59.70000076293945</gpx10:course></extensions>
</trkpt>
<trkpt lat="46.83422586" lon="7.56187975">
<ele>586.7000122070313</ele>
<time>2011-03-09T09:47:39Z</time>
<extensions>
<gpx10:speed>0.75</gpx10:speed>
<ogt10:accuracy>11.0</ogt10:accuracy>
<gpx10:course>258.8999938964844</gpx10:course></extensions>
</trkpt>
<trkpt lat="46.83430777" lon="7.56179945">
<ele>584.0999755859375</ele>
<time>2011-03-09T09:47:47Z</time>
<extensions>
<gpx10:speed>1.25</gpx10:speed>
<ogt10:accuracy>8.0</ogt10:accuracy>
<gpx10:course>312.20001220703125</gpx10:course></extensions>
</trkpt>
<trkpt lat="46.8343702" lon="7.56171016">
<ele>583.4000244140625</ele>
<time>2011-03-09T09:47:57Z</time>
<extensions>
<gpx10:speed>0.5</gpx10:speed>
<ogt10:accuracy>8.0</ogt10:accuracy>
<gpx10:course>294.0</gpx10:course></extensions>
</trkpt>
<trkpt lat="46.83443038" lon="7.56159655">
<ele>583.7000122070313</ele>
<time>2011-03-09T09:48:05Z</time>
<extensions>
<gpx10:speed>0.5</gpx10:speed>
<ogt10:accuracy>7.0</ogt10:accuracy>
<gpx10:course>294.0</gpx10:course></extensions>
</trkpt>
<trkpt lat="46.83452045" lon="7.56157555">
<ele>581.7999877929688</ele>
<time>2011-03-09T09:48:13Z</time>
<extensions>
<gpx10:speed>0.5</gpx10:speed>
<ogt10:accuracy>8.0</ogt10:accuracy>
<gpx10:course>294.0</gpx10:course></extensions>
</trkpt>
<trkpt lat="46.83461793" lon="7.56147673">
<ele>579.9000244140625</ele>
<time>2011-03-09T09:48:21Z</time>
<extensions>
<gpx10:speed>1.25</gpx10:speed>
<ogt10:accuracy>8.0</ogt10:accuracy>
<gpx10:course>344.5</gpx10:course></extensions>
</trkpt>
<trkpt lat="46.83472857" lon="7.56146188">
<ele>581.0999755859375</ele>
<time>2011-03-09T09:48:26Z</time>
<extensions>
<gpx10:speed>1.0</gpx10:speed>
<ogt10:accuracy>9.0</ogt10:accuracy>
<gpx10:course>347.0</gpx10:course></extensions>
</trkpt>
<trkpt lat="46.83487249" lon="7.56145689">
<ele>585.4000244140625</ele>
<time>2011-03-09T09:48:35Z</time>
<extensions>
<gpx10:speed>0.75</gpx10:speed>
<ogt10:accuracy>7.0</ogt10:accuracy>
<gpx10:course>347.3999938964844</gpx10:course></extensions>
</trkpt>
<trkpt lat="46.83483783" lon="7.56135027">
<ele>585.0999755859375</ele>
<time>2011-03-09T09:48:43Z</time>
<extensions>
<gpx10:speed>1.0</gpx10:speed>
<ogt10:accuracy>9.0</ogt10:accuracy>
<gpx10:course>241.3000030517578</gpx10:course></extensions>
</trkpt>
<trkpt lat="46.83481476" lon="7.56120296">
<ele>585.2999877929688</ele>
<time>2011-03-09T09:48:49Z</time>
<extensions>
<gpx10:speed>1.25</gpx10:speed>
<ogt10:accuracy>9.0</ogt10:accuracy>
<gpx10:course>253.6999969482422</gpx10:course></extensions>
</trkpt>
<trkpt lat="46.83463262" lon="7.56066246">
<ele>586.7999877929688</ele>
<time>2011-03-09T09:49:22Z</time>
<extensions>
<gpx10:speed>1.5</gpx10:speed>
<ogt10:accuracy>11.0</ogt10:accuracy>
<gpx10:course>230.5</gpx10:course></extensions>
</trkpt>
<trkpt lat="46.83455884" lon="7.56027098">
<ele>588.0</ele>
<time>2011-03-09T09:49:44Z</time>
<extensions>
<gpx10:speed>1.0</gpx10:speed>
<ogt10:accuracy>12.0</ogt10:accuracy>
<gpx10:course>267.1000061035156</gpx10:course></extensions>
</trkpt>
<trkpt lat="46.83425729" lon="7.5599923">
<ele>589.7999877929688</ele>
<time>2011-03-09T09:50:20Z</time>
<extensions>
<gpx10:speed>0.75</gpx10:speed>
<ogt10:accuracy>11.0</ogt10:accuracy>
<gpx10:course>165.3000030517578</gpx10:course></extensions>
</trkpt>
<trkpt lat="46.83417721" lon="7.55990895">
<ele>590.2999877929688</ele>
<time>2011-03-09T09:50:25Z</time>
<extensions>
<gpx10:speed>1.0</gpx10:speed>
<ogt10:accuracy>9.0</ogt10:accuracy>
<gpx10:course>182.10000610351563</gpx10:course></extensions>
</trkpt>
<trkpt lat="46.83408436" lon="7.56010837">
<ele>587.4000244140625</ele>
<time>2011-03-09T09:50:38Z</time>
<extensions>
<gpx10:speed>1.25</gpx10:speed>
<ogt10:accuracy>10.0</ogt10:accuracy>
<gpx10:course>124.69999694824219</gpx10:course></extensions>
</trkpt>
<trkpt lat="46.83393512" lon="7.56040441">
<ele>586.7000122070313</ele>
<time>2011-03-09T09:50:58Z</time>
<extensions>
<gpx10:speed>1.5</gpx10:speed>
<ogt10:accuracy>10.0</ogt10:accuracy>
<gpx10:course>110.19999694824219</gpx10:course></extensions>
</trkpt>
<trkpt lat="46.83390644" lon="7.56054551">
<ele>585.0999755859375</ele>
<time>2011-03-09T09:51:06Z</time>
<extensions>
<gpx10:speed>1.25</gpx10:speed>
<ogt10:accuracy>10.0</ogt10:accuracy>
<gpx10:course>106.30000305175781</gpx10:course></extensions>
</trkpt>
</trkseg>
<trkseg>
<trkpt lat="46.83386768" lon="7.56059406">
<ele>585.0</ele>
<time>2011-03-09T10:14:19Z</time>
<extensions>
<gpx10:speed>1.5</gpx10:speed>
<ogt10:accuracy>11.0</ogt10:accuracy>
<gpx10:course>119.0999984741211</gpx10:course></extensions>
</trkpt>
<trkpt lat="46.83433967" lon="7.56046572">
<ele>583.2000122070313</ele>
<time>2011-03-09T10:15:11Z</time>
<extensions>
<gpx10:speed>1.5811388492584229</gpx10:speed>
<ogt10:accuracy>14.0</ogt10:accuracy>
<gpx10:course>346.8999938964844</gpx10:course></extensions>
</trkpt>
<trkpt lat="46.83450442" lon="7.5604692">
<ele>581.5999755859375</ele>
<time>2011-03-09T10:15:20Z</time>
<extensions>
<gpx10:speed>1.0</gpx10:speed>
<ogt10:accuracy>12.0</ogt10:accuracy>
<gpx10:course>350.79998779296875</gpx10:course></extensions>
</trkpt>
<trkpt lat="46.83567809" lon="7.55997986">
<ele>575.0999755859375</ele>
<time>2011-03-09T10:17:08Z</time>
<extensions>
<gpx10:speed>0.5</gpx10:speed>
<ogt10:accuracy>11.0</ogt10:accuracy>
<gpx10:course>357.29998779296875</gpx10:course></extensions>
</trkpt>
<trkpt lat="46.83577424" lon="7.55994794">
<ele>575.4000244140625</ele>
<time>2011-03-09T10:17:11Z</time>
<extensions>
<gpx10:speed>0.75</gpx10:speed>
<ogt10:accuracy>10.0</ogt10:accuracy>
<gpx10:course>331.20001220703125</gpx10:course></extensions>
</trkpt>
<trkpt lat="46.83586169" lon="7.55990501">
<ele>575.2999877929688</ele>
<time>2011-03-09T10:17:16Z</time>
<extensions>
<gpx10:speed>1.0</gpx10:speed>
<ogt10:accuracy>10.0</ogt10:accuracy>
<gpx10:course>324.70001220703125</gpx10:course></extensions>
</trkpt>
<trkpt lat="46.83698389" lon="7.5592877">
<ele>567.2999877929688</ele>
<time>2011-03-09T10:19:00Z</time>
<extensions>
<gpx10:speed>0.75</gpx10:speed>
<ogt10:accuracy>10.0</ogt10:accuracy>
<gpx10:course>343.6000061035156</gpx10:course></extensions>
</trkpt>
<trkpt lat="46.83707935" lon="7.55927722">
<ele>568.2000122070313</ele>
<time>2011-03-09T10:19:11Z</time>
<extensions>
<gpx10:speed>0.75</gpx10:speed>
<ogt10:accuracy>10.0</ogt10:accuracy>
<gpx10:course>343.6000061035156</gpx10:course></extensions>
</trkpt>
<trkpt lat="46.84500393" lon="7.55639834">
<ele>572.5999755859375</ele>
<time>2011-03-09T10:33:32Z</time>
<extensions>
<gpx10:speed>0.5</gpx10:speed>
<ogt10:accuracy>10.0</ogt10:accuracy>
<gpx10:course>332.70001220703125</gpx10:course></extensions>
</trkpt>
<trkpt lat="46.84592076" lon="7.55615673">
<ele>572.5999755859375</ele>
<time>2011-03-09T10:34:40Z</time>
<extensions>
<gpx10:speed>1.5</gpx10:speed>
<ogt10:accuracy>12.0</ogt10:accuracy>
<gpx10:course>354.8999938964844</gpx10:course></extensions>
</trkpt>
<trkpt lat="46.84614275" lon="7.55599714">
<ele>573.4000244140625</ele>
<time>2011-03-09T10:34:58Z</time>
<extensions>
<gpx10:speed>0.75</gpx10:speed>
<ogt10:accuracy>12.0</ogt10:accuracy>
<gpx10:course>345.20001220703125</gpx10:course></extensions>
</trkpt>
<trkpt lat="46.84630036" lon="7.5559075">
<ele>571.0</ele>
<time>2011-03-09T10:35:17Z</time>
<extensions>
<gpx10:speed>1.25</gpx10:speed>
<ogt10:accuracy>15.0</ogt10:accuracy>
<gpx10:course>323.6000061035156</gpx10:course></extensions>
</trkpt>
<trkpt lat="46.84848855" lon="7.55530199">
<ele>571.5999755859375</ele>
<time>2011-03-09T10:38:46Z</time>
<extensions>
<gpx10:speed>0.5</gpx10:speed>
<ogt10:accuracy>14.0</ogt10:accuracy>
<gpx10:course>317.79998779296875</gpx10:course></extensions>
</trkpt>
<trkpt lat="46.84877931" lon="7.55540976">
<ele>576.4000244140625</ele>
<time>2011-03-09T10:39:08Z</time>
<extensions>
<gpx10:speed>0.75</gpx10:speed>
<ogt10:accuracy>12.0</ogt10:accuracy>
<gpx10:course>351.3999938964844</gpx10:course></extensions>
</trkpt>
<trkpt lat="46.84887086" lon="7.55533548">
<ele>577.5999755859375</ele>
<time>2011-03-09T10:39:26Z</time>
<extensions>
<gpx10:speed>0.75</gpx10:speed>
<ogt10:accuracy>11.0</ogt10:accuracy>
<gpx10:course>340.5</gpx10:course></extensions>
</trkpt>
<trkpt lat="46.84897673" lon="7.5553233">
<ele>583.7000122070313</ele>
<time>2011-03-09T10:39:40Z</time>
<extensions>
<gpx10:speed>0.75</gpx10:speed>
<ogt10:accuracy>8.0</ogt10:accuracy>
<gpx10:course>340.5</gpx10:course></extensions>
</trkpt>
<trkpt lat="46.84903669" lon="7.55528851">
<ele>585.5999755859375</ele>
<time>2011-03-09T10:39:46Z</time>
<extensions>
<gpx10:speed>0.75</gpx10:speed>
<ogt10:accuracy>6.0</ogt10:accuracy>
<gpx10:course>308.70001220703125</gpx10:course></extensions>
</trkpt>
<trkpt lat="46.84900427" lon="7.55514616">
<ele>582.4000244140625</ele>
<time>2011-03-09T10:39:52Z</time>
<extensions>
<gpx10:speed>1.25</gpx10:speed>
<ogt10:accuracy>7.0</ogt10:accuracy>
<gpx10:course>251.8000030517578</gpx10:course></extensions>
</trkpt>
<trkpt lat="46.84908704" lon="7.55498019">
<ele>585.9000244140625</ele>
<time>2011-03-09T10:40:06Z</time>
<extensions>
<gpx10:speed>1.75</gpx10:speed>
<ogt10:accuracy>12.0</ogt10:accuracy>
<gpx10:course>287.8999938964844</gpx10:course></extensions>
</trkpt>
<trkpt lat="46.8490521" lon="7.5547051">
<ele>586.5</ele>
<time>2011-03-09T10:40:15Z</time>
<extensions>
<gpx10:speed>1.0</gpx10:speed>
<ogt10:accuracy>10.0</ogt10:accuracy>
<gpx10:course>290.5</gpx10:course></extensions>
</trkpt>
<trkpt lat="46.84910547" lon="7.55458703">
<ele>589.4000244140625</ele>
<time>2011-03-09T10:40:25Z</time>
<extensions>
<gpx10:speed>1.0</gpx10:speed>
<ogt10:accuracy>9.0</ogt10:accuracy>
<gpx10:course>324.5</gpx10:course></extensions>
</trkpt>
<trkpt lat="46.84920166" lon="7.55452467">
<ele>590.0</ele>
<time>2011-03-09T10:40:36Z</time>
<extensions>
<gpx10:speed>1.0</gpx10:speed>
<ogt10:accuracy>9.0</ogt10:accuracy>
<gpx10:course>342.1000061035156</gpx10:course></extensions>
</trkpt>
<trkpt lat="46.849284" lon="7.55446554">
<ele>589.0999755859375</ele>
<time>2011-03-09T10:40:44Z</time>
<extensions>
<gpx10:speed>0.75</gpx10:speed>
<ogt10:accuracy>7.0</ogt10:accuracy>
<gpx10:course>324.70001220703125</gpx10:course></extensions>
</trkpt>
<trkpt lat="46.84937607" lon="7.55440122">
<ele>589.0999755859375</ele>
<time>2011-03-09T10:40:53Z</time>
<extensions>
<gpx10:speed>1.5</gpx10:speed>
<ogt10:accuracy>7.0</ogt10:accuracy>
<gpx10:course>347.1000061035156</gpx10:course></extensions>
</trkpt>
<trkpt lat="46.84967866" lon="7.5544602">
<ele>589.5</ele>
<time>2011-03-09T10:41:29Z</time>
<extensions>
<gpx10:speed>0.75</gpx10:speed>
<ogt10:accuracy>9.0</ogt10:accuracy>
<gpx10:course>182.6999969482422</gpx10:course></extensions>
</trkpt>
<trkpt lat="46.84958313" lon="7.55442429">
<ele>589.9000244140625</ele>
<time>2011-03-09T10:41:38Z</time>
<extensions>
<gpx10:speed>1.0</gpx10:speed>
<ogt10:accuracy>8.0</ogt10:accuracy>
<gpx10:course>212.6999969482422</gpx10:course></extensions>
</trkpt>
<trkpt lat="46.849489" lon="7.55440473">
<ele>588.4000244140625</ele>
<time>2011-03-09T10:41:46Z</time>
<extensions>
<gpx10:speed>1.25</gpx10:speed>
<ogt10:accuracy>8.0</ogt10:accuracy>
<gpx10:course>193.10000610351563</gpx10:course></extensions>
</trkpt>
<trkpt lat="46.84945261" lon="7.55451389">
<ele>591.2999877929688</ele>
<time>2011-03-09T10:42:00Z</time>
<extensions>
<gpx10:speed>1.0</gpx10:speed>
<ogt10:accuracy>9.0</ogt10:accuracy>
<gpx10:course>113.0999984741211</gpx10:course></extensions>
</trkpt>
<trkpt lat="46.84962024" lon="7.55439061">
<ele>591.7000122070313</ele>
<time>2011-03-09T10:43:23Z</time>
<extensions>
<gpx10:speed>1.25</gpx10:speed>
<ogt10:accuracy>10.0</ogt10:accuracy>
<gpx10:course>9.699999809265137</gpx10:course></extensions>
</trkpt>
<trkpt lat="46.84972104" lon="7.55444829">
<ele>589.5999755859375</ele>
<time>2011-03-09T10:43:30Z</time>
<extensions>
<gpx10:speed>1.75</gpx10:speed>
<ogt10:accuracy>9.0</ogt10:accuracy>
<gpx10:course>23.5</gpx10:course></extensions>
</trkpt>
<trkpt lat="46.84983613" lon="7.55448034">
<ele>592.2000122070313</ele>
<time>2011-03-09T10:43:37Z</time>
<extensions>
<gpx10:speed>1.75</gpx10:speed>
<ogt10:accuracy>9.0</ogt10:accuracy>
<gpx10:course>14.300000190734863</gpx10:course></extensions>
</trkpt>
<trkpt lat="46.85028906" lon="7.55465323">
<ele>590.2000122070313</ele>
<time>2011-03-09T10:44:18Z</time>
<extensions>
<gpx10:speed>1.25</gpx10:speed>
<ogt10:accuracy>9.0</ogt10:accuracy>
<gpx10:course>349.3999938964844</gpx10:course></extensions>
</trkpt>
<trkpt lat="46.85039353" lon="7.55460947">
<ele>591.7999877929688</ele>
<time>2011-03-09T10:44:28Z</time>
<extensions>
<gpx10:speed>1.25</gpx10:speed>
<ogt10:accuracy>6.0</ogt10:accuracy>
<gpx10:course>355.70001220703125</gpx10:course></extensions>
</trkpt>
<trkpt lat="46.85045048" lon="7.55460951">
<ele>592.2999877929688</ele>
<time>2011-03-09T10:44:33Z</time>
<extensions>
<gpx10:speed>1.25</gpx10:speed>
<ogt10:accuracy>6.0</ogt10:accuracy>
<gpx10:course>355.1000061035156</gpx10:course></extensions>
</trkpt>
<trkpt lat="46.85049995" lon="7.55457295">
<ele>591.9000244140625</ele>
<time>2011-03-09T10:44:36Z</time>
<extensions>
<gpx10:speed>1.5</gpx10:speed>
<ogt10:accuracy>6.0</ogt10:accuracy>
<gpx10:course>350.29998779296875</gpx10:course></extensions>
</trkpt>
<trkpt lat="46.85056757" lon="7.55456325">
<ele>590.4000244140625</ele>
<time>2011-03-09T10:44:40Z</time>
<extensions>
<gpx10:speed>1.75</gpx10:speed>
<ogt10:accuracy>6.0</ogt10:accuracy>
<gpx10:course>350.79998779296875</gpx10:course></extensions>
</trkpt>
<trkpt lat="46.85067579" lon="7.55454851">
<ele>588.2000122070313</ele>
<time>2011-03-09T10:44:49Z</time>
<extensions>
<gpx10:speed>1.25</gpx10:speed>
<ogt10:accuracy>7.0</ogt10:accuracy>
<gpx10:course>341.8999938964844</gpx10:course></extensions>
</trkpt>
<trkpt lat="46.85077587" lon="7.55446327">
<ele>589.2000122070313</ele>
<time>2011-03-09T10:44:57Z</time>
<extensions>
<gpx10:speed>1.5</gpx10:speed>
<ogt10:accuracy>7.0</ogt10:accuracy>
<gpx10:course>355.70001220703125</gpx10:course></extensions>
</trkpt>
<trkpt lat="46.85088432" lon="7.55444765">
<ele>587.4000244140625</ele>
<time>2011-03-09T10:45:10Z</time>
<extensions>
<gpx10:speed>1.0</gpx10:speed>
<ogt10:accuracy>10.0</ogt10:accuracy>
<gpx10:course>10.600000381469727</gpx10:course></extensions>
</trkpt>
<trkpt lat="46.8509895" lon="7.55436074">
<ele>588.4000244140625</ele>
<time>2011-03-09T10:45:19Z</time>
<extensions>
<gpx10:speed>1.0</gpx10:speed>
<ogt10:accuracy>7.0</ogt10:accuracy>
<gpx10:course>321.79998779296875</gpx10:course></extensions>
</trkpt>
<trkpt lat="46.85103542" lon="7.55430127">
<ele>588.5999755859375</ele>
<time>2011-03-09T10:45:24Z</time>
<extensions>
<gpx10:speed>1.5</gpx10:speed>
<ogt10:accuracy>6.0</ogt10:accuracy>
<gpx10:course>323.79998779296875</gpx10:course></extensions>
</trkpt>
<trkpt lat="46.8511176" lon="7.55427899">
<ele>587.5</ele>
<time>2011-03-09T10:45:30Z</time>
<extensions>
<gpx10:speed>1.346291184425354</gpx10:speed>
<ogt10:accuracy>8.0</ogt10:accuracy>
<gpx10:course>349.8999938964844</gpx10:course></extensions>
</trkpt>
<trkpt lat="46.8511996" lon="7.55415219">
<ele>588.0999755859375</ele>
<time>2011-03-09T10:45:40Z</time>
<extensions>
<gpx10:speed>1.25</gpx10:speed>
<ogt10:accuracy>9.0</ogt10:accuracy>
<gpx10:course>343.1000061035156</gpx10:course></extensions>
</trkpt>
<trkpt lat="46.85130028" lon="7.55408994">
<ele>588.5999755859375</ele>
<time>2011-03-09T10:45:48Z</time>
<extensions>
<gpx10:speed>1.5</gpx10:speed>
<ogt10:accuracy>9.0</ogt10:accuracy>
<gpx10:course>336.8999938964844</gpx10:course></extensions>
</trkpt>
<trkpt lat="46.85139235" lon="7.5540714">
<ele>588.2000122070313</ele>
<time>2011-03-09T10:45:55Z</time>
<extensions>
<gpx10:speed>1.25</gpx10:speed>
<ogt10:accuracy>10.0</ogt10:accuracy>
<gpx10:course>327.0</gpx10:course></extensions>
</trkpt>
<trkpt lat="46.85147468" lon="7.55403864">
<ele>586.7000122070313</ele>
<time>2011-03-09T10:46:02Z</time>
<extensions>
<gpx10:speed>1.75</gpx10:speed>
<ogt10:accuracy>8.0</ogt10:accuracy>
<gpx10:course>0.6000000238418579</gpx10:course></extensions>
</trkpt>
<trkpt lat="46.85156849" lon="7.55401833">
<ele>586.0999755859375</ele>
<time>2011-03-09T10:46:06Z</time>
<extensions>
<gpx10:speed>1.75</gpx10:speed>
<ogt10:accuracy>9.0</ogt10:accuracy>
<gpx10:course>351.29998779296875</gpx10:course></extensions>
</trkpt>
<trkpt lat="46.8516858" lon="7.55401073">
<ele>587.4000244140625</ele>
<time>2011-03-09T10:46:13Z</time>
<extensions>
<gpx10:speed>1.5</gpx10:speed>
<ogt10:accuracy>10.0</ogt10:accuracy>
<gpx10:course>0.10000000149011612</gpx10:course></extensions>
</trkpt>
<trkpt lat="46.8517751" lon="7.5539275">
<ele>587.4000244140625</ele>
<time>2011-03-09T10:46:20Z</time>
<extensions>
<gpx10:speed>1.5</gpx10:speed>
<ogt10:accuracy>10.0</ogt10:accuracy>
<gpx10:course>341.6000061035156</gpx10:course></extensions>
</trkpt>
<trkpt lat="46.85188382" lon="7.55386608">
<ele>587.4000244140625</ele>
<time>2011-03-09T10:46:31Z</time>
<extensions>
<gpx10:speed>1.25</gpx10:speed>
<ogt10:accuracy>10.0</ogt10:accuracy>
<gpx10:course>347.70001220703125</gpx10:course></extensions>
</trkpt>
<trkpt lat="46.85200637" lon="7.55380622">
<ele>588.2999877929688</ele>
<time>2011-03-09T10:46:37Z</time>
<extensions>
<gpx10:speed>2.0</gpx10:speed>
<ogt10:accuracy>10.0</ogt10:accuracy>
<gpx10:course>336.5</gpx10:course></extensions>
</trkpt>
<trkpt lat="46.852135" lon="7.55378539">
<ele>587.2000122070313</ele>
<time>2011-03-09T10:46:50Z</time>
<extensions>
<gpx10:speed>1.75</gpx10:speed>
<ogt10:accuracy>11.0</ogt10:accuracy>
<gpx10:course>347.20001220703125</gpx10:course></extensions>
</trkpt>
<trkpt lat="46.85222908" lon="7.55373102">
<ele>587.0999755859375</ele>
<time>2011-03-09T10:46:57Z</time>
<extensions>
<gpx10:speed>1.75</gpx10:speed>
<ogt10:accuracy>10.0</ogt10:accuracy>
<gpx10:course>335.29998779296875</gpx10:course></extensions>
</trkpt>
<trkpt lat="46.85232754" lon="7.5536872">
<ele>587.0999755859375</ele>
<time>2011-03-09T10:47:05Z</time>
<extensions>
<gpx10:speed>1.5</gpx10:speed>
<ogt10:accuracy>8.0</ogt10:accuracy>
<gpx10:course>342.3999938964844</gpx10:course></extensions>
</trkpt>
<trkpt lat="46.85238409" lon="7.5535834">
<ele>588.2999877929688</ele>
<time>2011-03-09T10:47:19Z</time>
<extensions>
<gpx10:speed>0.75</gpx10:speed>
<ogt10:accuracy>8.0</ogt10:accuracy>
<gpx10:course>295.0</gpx10:course></extensions>
</trkpt>
<trkpt lat="46.85246394" lon="7.55351157">
<ele>590.7000122070313</ele>
<time>2011-03-09T10:47:28Z</time>
<extensions>
<gpx10:speed>0.75</gpx10:speed>
<ogt10:accuracy>8.0</ogt10:accuracy>
<gpx10:course>320.20001220703125</gpx10:course></extensions>
</trkpt>
<trkpt lat="46.85254789" lon="7.55343696">
<ele>590.2999877929688</ele>
<time>2011-03-09T10:47:37Z</time>
<extensions>
<gpx10:speed>1.0</gpx10:speed>
<ogt10:accuracy>8.0</ogt10:accuracy>
<gpx10:course>321.6000061035156</gpx10:course></extensions>
</trkpt>
<trkpt lat="46.85268461" lon="7.55323898">
<ele>591.5999755859375</ele>
<time>2011-03-09T10:47:53Z</time>
<extensions>
<gpx10:speed>0.75</gpx10:speed>
<ogt10:accuracy>9.0</ogt10:accuracy>
<gpx10:course>319.79998779296875</gpx10:course></extensions>
</trkpt>
<trkpt lat="46.85275339" lon="7.55311656">
<ele>593.2000122070313</ele>
<time>2011-03-09T10:47:58Z</time>
<extensions>
<gpx10:speed>1.5</gpx10:speed>
<ogt10:accuracy>8.0</ogt10:accuracy>
<gpx10:course>283.29998779296875</gpx10:course></extensions>
</trkpt>
<trkpt lat="46.8528109" lon="7.55300333">
<ele>595.0</ele>
<time>2011-03-09T10:48:08Z</time>
<extensions>
<gpx10:speed>1.0</gpx10:speed>
<ogt10:accuracy>7.0</ogt10:accuracy>
<gpx10:course>300.6000061035156</gpx10:course></extensions>
</trkpt>
<trkpt lat="46.85284672" lon="7.55290762">
<ele>594.9000244140625</ele>
<time>2011-03-09T10:48:17Z</time>
<extensions>
<gpx10:speed>1.0</gpx10:speed>
<ogt10:accuracy>7.0</ogt10:accuracy>
<gpx10:course>310.0</gpx10:course></extensions>
</trkpt>
<trkpt lat="46.85289042" lon="7.55278592">
<ele>595.5999755859375</ele>
<time>2011-03-09T10:48:25Z</time>
<extensions>
<gpx10:speed>1.0</gpx10:speed>
<ogt10:accuracy>7.0</ogt10:accuracy>
<gpx10:course>293.29998779296875</gpx10:course></extensions>
</trkpt>
<trkpt lat="46.85292394" lon="7.55264558">
<ele>596.5</ele>
<time>2011-03-09T10:48:43Z</time>
<extensions>
<gpx10:speed>0.5</gpx10:speed>
<ogt10:accuracy>8.0</ogt10:accuracy>
<gpx10:course>304.6000061035156</gpx10:course></extensions>
</trkpt>
<trkpt lat="46.85294162" lon="7.55251762">
<ele>600.4000244140625</ele>
<time>2011-03-09T10:48:50Z</time>
<extensions>
<gpx10:speed>1.25</gpx10:speed>
<ogt10:accuracy>9.0</ogt10:accuracy>
<gpx10:course>259.1000061035156</gpx10:course></extensions>
</trkpt>
<trkpt lat="46.85303396" lon="7.55239396">
<ele>601.7000122070313</ele>
<time>2011-03-09T10:48:58Z</time>
<extensions>
<gpx10:speed>0.75</gpx10:speed>
<ogt10:accuracy>10.0</ogt10:accuracy>
<gpx10:course>309.3999938964844</gpx10:course></extensions>
</trkpt>
<trkpt lat="46.85313036" lon="7.55233145">
<ele>601.5</ele>
<time>2011-03-09T10:49:09Z</time>
<extensions>
<gpx10:speed>1.0</gpx10:speed>
<ogt10:accuracy>8.0</ogt10:accuracy>
<gpx10:course>4.400000095367432</gpx10:course></extensions>
</trkpt>
<trkpt lat="46.8543156" lon="7.55207738">
<ele>598.2000122070313</ele>
<time>2011-03-09T10:50:36Z</time>
<extensions>
<gpx10:speed>0.5</gpx10:speed>
<ogt10:accuracy>9.0</ogt10:accuracy>
<gpx10:course>43.599998474121094</gpx10:course></extensions>
</trkpt>
<trkpt lat="46.8544302" lon="7.55205334">
<ele>598.2999877929688</ele>
<time>2011-03-09T10:50:47Z</time>
<extensions>
<gpx10:speed>1.5</gpx10:speed>
<ogt10:accuracy>10.0</ogt10:accuracy>
<gpx10:course>345.70001220703125</gpx10:course></extensions>
</trkpt>
<trkpt lat="46.85453814" lon="7.55202529">
<ele>598.0</ele>
<time>2011-03-09T10:50:53Z</time>
<extensions>
<gpx10:speed>1.25</gpx10:speed>
<ogt10:accuracy>8.0</ogt10:accuracy>
<gpx10:course>343.79998779296875</gpx10:course></extensions>
</trkpt>
<trkpt lat="46.85463707" lon="7.55206888">
<ele>592.2000122070313</ele>
<time>2011-03-09T10:51:05Z</time>
<extensions>
<gpx10:speed>1.25</gpx10:speed>
<ogt10:accuracy>9.0</ogt10:accuracy>
<gpx10:course>13.399999618530273</gpx10:course></extensions>
</trkpt>
<trkpt lat="46.85530526" lon="7.55172525">
<ele>590.4000244140625</ele>
<time>2011-03-09T10:52:02Z</time>
<extensions>
<gpx10:speed>1.0</gpx10:speed>
<ogt10:accuracy>10.0</ogt10:accuracy>
<gpx10:course>3.5</gpx10:course></extensions>
</trkpt>
<trkpt lat="46.85562799" lon="7.55163123">
<ele>591.4000244140625</ele>
<time>2011-03-09T10:52:19Z</time>
<extensions>
<gpx10:speed>1.5</gpx10:speed>
<ogt10:accuracy>10.0</ogt10:accuracy>
<gpx10:course>330.0</gpx10:course></extensions>
</trkpt>
<trkpt lat="46.85574143" lon="7.55164156">
<ele>593.5</ele>
<time>2011-03-09T10:52:27Z</time>
<extensions>
<gpx10:speed>1.5</gpx10:speed>
<ogt10:accuracy>10.0</ogt10:accuracy>
<gpx10:course>351.1000061035156</gpx10:course></extensions>
</trkpt>
<trkpt lat="46.85585503" lon="7.55158856">
<ele>594.2000122070313</ele>
<time>2011-03-09T10:52:57Z</time>
<extensions>
<gpx10:speed>1.25</gpx10:speed>
<ogt10:accuracy>10.0</ogt10:accuracy>
<gpx10:course>338.8999938964844</gpx10:course></extensions>
</trkpt>
<trkpt lat="46.85593366" lon="7.55155594">
<ele>595.2999877929688</ele>
<time>2011-03-09T10:53:02Z</time>
<extensions>
<gpx10:speed>1.25</gpx10:speed>
<ogt10:accuracy>9.0</ogt10:accuracy>
<gpx10:course>340.6000061035156</gpx10:course></extensions>
</trkpt>
<trkpt lat="46.85603542" lon="7.55155445">
<ele>593.5</ele>
<time>2011-03-09T10:53:11Z</time>
<extensions>
<gpx10:speed>1.25</gpx10:speed>
<ogt10:accuracy>9.0</ogt10:accuracy>
<gpx10:course>6.199999809265137</gpx10:course></extensions>
</trkpt>
<trkpt lat="46.85614521" lon="7.55151419">
<ele>592.2000122070313</ele>
<time>2011-03-09T10:53:18Z</time>
<extensions>
<gpx10:speed>1.5</gpx10:speed>
<ogt10:accuracy>9.0</ogt10:accuracy>
<gpx10:course>354.29998779296875</gpx10:course></extensions>
</trkpt>
<trkpt lat="46.85622811" lon="7.55143209">
<ele>593.2000122070313</ele>
<time>2011-03-09T10:53:28Z</time>
<extensions>
<gpx10:speed>0.75</gpx10:speed>
<ogt10:accuracy>8.0</ogt10:accuracy>
<gpx10:course>339.0</gpx10:course></extensions>
</trkpt>
<trkpt lat="46.85632373" lon="7.55133694">
<ele>592.0999755859375</ele>
<time>2011-03-09T10:53:39Z</time>
<extensions>
<gpx10:speed>1.25</gpx10:speed>
<ogt10:accuracy>8.0</ogt10:accuracy>
<gpx10:course>313.8999938964844</gpx10:course></extensions>
</trkpt>
<trkpt lat="46.85642328" lon="7.55128644">
<ele>597.0</ele>
<time>2011-03-09T10:53:50Z</time>
<extensions>
<gpx10:speed>0.75</gpx10:speed>
<ogt10:accuracy>7.0</ogt10:accuracy>
<gpx10:course>324.6000061035156</gpx10:course></extensions>
</trkpt>
<trkpt lat="46.85652337" lon="7.5512546">
<ele>595.7000122070313</ele>
<time>2011-03-09T10:53:58Z</time>
<extensions>
<gpx10:speed>1.25</gpx10:speed>
<ogt10:accuracy>8.0</ogt10:accuracy>
<gpx10:course>346.1000061035156</gpx10:course></extensions>
</trkpt>
<trkpt lat="46.85661283" lon="7.5511789">
<ele>596.0999755859375</ele>
<time>2011-03-09T10:54:07Z</time>
<extensions>
<gpx10:speed>0.75</gpx10:speed>
<ogt10:accuracy>9.0</ogt10:accuracy>
<gpx10:course>325.29998779296875</gpx10:course></extensions>
</trkpt>
<trkpt lat="46.85723104" lon="7.55087168">
<ele>591.2000122070313</ele>
<time>2011-03-09T10:54:50Z</time>
<extensions>
<gpx10:speed>1.5</gpx10:speed>
<ogt10:accuracy>10.0</ogt10:accuracy>
<gpx10:course>355.20001220703125</gpx10:course></extensions>
</trkpt>
<trkpt lat="46.85756272" lon="7.55077447">
<ele>592.0999755859375</ele>
<time>2011-03-09T10:56:06Z</time>
<extensions>
<gpx10:speed>0.75</gpx10:speed>
<ogt10:accuracy>10.0</ogt10:accuracy>
<gpx10:course>352.20001220703125</gpx10:course></extensions>
</trkpt>
<trkpt lat="46.85766674" lon="7.55077834">
<ele>590.7999877929688</ele>
<time>2011-03-09T10:56:14Z</time>
<extensions>
<gpx10:speed>1.5</gpx10:speed>
<ogt10:accuracy>10.0</ogt10:accuracy>
<gpx10:course>2.5</gpx10:course></extensions>
</trkpt>
<trkpt lat="46.85778386" lon="7.55068172">
<ele>590.7000122070313</ele>
<time>2011-03-09T10:56:22Z</time>
<extensions>
<gpx10:speed>1.5</gpx10:speed>
<ogt10:accuracy>8.0</ogt10:accuracy>
<gpx10:course>333.29998779296875</gpx10:course></extensions>
</trkpt>
<trkpt lat="46.85787536" lon="7.55064943">
<ele>590.0</ele>
<time>2011-03-09T10:56:27Z</time>
<extensions>
<gpx10:speed>1.25</gpx10:speed>
<ogt10:accuracy>8.0</ogt10:accuracy>
<gpx10:course>346.20001220703125</gpx10:course></extensions>
</trkpt>
<trkpt lat="46.85796881" lon="7.55059194">
<ele>589.2000122070313</ele>
<time>2011-03-09T10:56:37Z</time>
<extensions>
<gpx10:speed>1.25</gpx10:speed>
<ogt10:accuracy>7.0</ogt10:accuracy>
<gpx10:course>334.29998779296875</gpx10:course></extensions>
</trkpt>
<trkpt lat="46.85806094" lon="7.55054689">
<ele>590.7000122070313</ele>
<time>2011-03-09T10:56:45Z</time>
<extensions>
<gpx10:speed>1.0</gpx10:speed>
<ogt10:accuracy>7.0</ogt10:accuracy>
<gpx10:course>343.8999938964844</gpx10:course></extensions>
</trkpt>
<trkpt lat="46.85813362" lon="7.55052555">
<ele>592.5</ele>
<time>2011-03-09T10:56:50Z</time>
<extensions>
<gpx10:speed>1.25</gpx10:speed>
<ogt10:accuracy>7.0</ogt10:accuracy>
<gpx10:course>347.6000061035156</gpx10:course></extensions>
</trkpt>
<trkpt lat="46.85822264" lon="7.5504677">
<ele>591.7999877929688</ele>
<time>2011-03-09T10:56:58Z</time>
<extensions>
<gpx10:speed>1.0</gpx10:speed>
<ogt10:accuracy>7.0</ogt10:accuracy>
<gpx10:course>345.1000061035156</gpx10:course></extensions>
</trkpt>
<trkpt lat="46.85830789" lon="7.55039198">
<ele>592.7999877929688</ele>
<time>2011-03-09T10:57:06Z</time>
<extensions>
<gpx10:speed>1.0</gpx10:speed>
<ogt10:accuracy>7.0</ogt10:accuracy>
<gpx10:course>335.20001220703125</gpx10:course></extensions>
</trkpt>
<trkpt lat="46.85840805" lon="7.55034284">
<ele>591.0999755859375</ele>
<time>2011-03-09T10:57:12Z</time>
<extensions>
<gpx10:speed>1.820027470588684</gpx10:speed>
<ogt10:accuracy>7.0</ogt10:accuracy>
<gpx10:course>333.29998779296875</gpx10:course></extensions>
</trkpt>
<trkpt lat="46.85846226" lon="7.55022652">
<ele>592.0</ele>
<time>2011-03-09T10:57:19Z</time>
<extensions>
<gpx10:speed>1.0</gpx10:speed>
<ogt10:accuracy>7.0</ogt10:accuracy>
<gpx10:course>303.29998779296875</gpx10:course></extensions>
</trkpt>
<trkpt lat="46.85855417" lon="7.55014261">
<ele>591.7999877929688</ele>
<time>2011-03-09T10:57:28Z</time>
<extensions>
<gpx10:speed>1.25</gpx10:speed>
<ogt10:accuracy>8.0</ogt10:accuracy>
<gpx10:course>314.1000061035156</gpx10:course></extensions>
</trkpt>
<trkpt lat="46.85867093" lon="7.55012444">
<ele>589.9000244140625</ele>
<time>2011-03-09T10:57:36Z</time>
<extensions>
<gpx10:speed>1.25</gpx10:speed>
<ogt10:accuracy>8.0</ogt10:accuracy>
<gpx10:course>335.70001220703125</gpx10:course></extensions>
</trkpt>
<trkpt lat="46.85877126" lon="7.55001057">
<ele>589.2000122070313</ele>
<time>2011-03-09T10:57:44Z</time>
<extensions>
<gpx10:speed>1.25</gpx10:speed>
<ogt10:accuracy>8.0</ogt10:accuracy>
<gpx10:course>327.20001220703125</gpx10:course></extensions>
</trkpt>
<trkpt lat="46.8588558" lon="7.54998543">
<ele>588.4000244140625</ele>
<time>2011-03-09T10:57:53Z</time>
<extensions>
<gpx10:speed>1.0</gpx10:speed>
<ogt10:accuracy>7.0</ogt10:accuracy>
<gpx10:course>334.6000061035156</gpx10:course></extensions>
</trkpt>
<trkpt lat="46.85895574" lon="7.54994515">
<ele>587.9000244140625</ele>
<time>2011-03-09T10:57:59Z</time>
<extensions>
<gpx10:speed>1.25</gpx10:speed>
<ogt10:accuracy>9.0</ogt10:accuracy>
<gpx10:course>338.70001220703125</gpx10:course></extensions>
</trkpt>
<trkpt lat="46.85909407" lon="7.54980467">
<ele>590.0</ele>
<time>2011-03-09T10:58:09Z</time>
<extensions>
<gpx10:speed>1.25</gpx10:speed>
<ogt10:accuracy>10.0</ogt10:accuracy>
<gpx10:course>320.8999938964844</gpx10:course></extensions>
</trkpt>
<trkpt lat="46.85922445" lon="7.54967201">
<ele>590.4000244140625</ele>
<time>2011-03-09T10:58:21Z</time>
<extensions>
<gpx10:speed>0.75</gpx10:speed>
<ogt10:accuracy>11.0</ogt10:accuracy>
<gpx10:course>341.1000061035156</gpx10:course></extensions>
</trkpt>
<trkpt lat="46.86087999" lon="7.54878068">
<ele>595.7999877929688</ele>
<time>2011-03-09T11:01:13Z</time>
<extensions>
<gpx10:speed>1.25</gpx10:speed>
<ogt10:accuracy>10.0</ogt10:accuracy>
<gpx10:course>337.3999938964844</gpx10:course></extensions>
</trkpt>
<trkpt lat="46.86095568" lon="7.54868659">
<ele>594.5</ele>
<time>2011-03-09T11:01:18Z</time>
<extensions>
<gpx10:speed>1.75</gpx10:speed>
<ogt10:accuracy>10.0</ogt10:accuracy>
<gpx10:course>325.29998779296875</gpx10:course></extensions>
</trkpt>
<trkpt lat="46.86114346" lon="7.54862233">
<ele>596.0</ele>
<time>2011-03-09T11:01:37Z</time>
<extensions>
<gpx10:speed>0.75</gpx10:speed>
<ogt10:accuracy>10.0</ogt10:accuracy>
<gpx10:course>339.1000061035156</gpx10:course></extensions>
</trkpt>
<trkpt lat="46.86126376" lon="7.54860249">
<ele>595.0999755859375</ele>
<time>2011-03-09T11:01:47Z</time>
<extensions>
<gpx10:speed>1.25</gpx10:speed>
<ogt10:accuracy>9.0</ogt10:accuracy>
<gpx10:course>339.6000061035156</gpx10:course></extensions>
</trkpt>
<trkpt lat="46.86480325" lon="7.54618017">
<ele>591.7000122070313</ele>
<time>2011-03-09T11:07:28Z</time>
<extensions>
<gpx10:speed>1.0</gpx10:speed>
<ogt10:accuracy>10.0</ogt10:accuracy>
<gpx10:course>13.699999809265137</gpx10:course></extensions>
</trkpt>
<trkpt lat="46.86488332" lon="7.54608118">
<ele>592.5</ele>
<time>2011-03-09T11:07:36Z</time>
<extensions>
<gpx10:speed>0.75</gpx10:speed>
<ogt10:accuracy>9.0</ogt10:accuracy>
<gpx10:course>328.29998779296875</gpx10:course></extensions>
</trkpt>
<trkpt lat="46.86552894" lon="7.5460941">
<ele>602.0</ele>
<time>2011-03-09T11:09:21Z</time>
<extensions>
<gpx10:speed>0.5</gpx10:speed>
<ogt10:accuracy>10.0</ogt10:accuracy>
<gpx10:course>111.9000015258789</gpx10:course></extensions>
</trkpt>
<trkpt lat="46.86562322" lon="7.54609534">
<ele>602.4000244140625</ele>
<time>2011-03-09T11:09:33Z</time>
<extensions>
<gpx10:speed>0.5</gpx10:speed>
<ogt10:accuracy>10.0</ogt10:accuracy>
<gpx10:course>111.9000015258789</gpx10:course></extensions>
</trkpt>
<trkpt lat="46.86571695" lon="7.54604505">
<ele>602.2999877929688</ele>
<time>2011-03-09T11:09:40Z</time>
<extensions>
<gpx10:speed>1.25</gpx10:speed>
<ogt10:accuracy>10.0</ogt10:accuracy>
<gpx10:course>348.6000061035156</gpx10:course></extensions>
</trkpt>
<trkpt lat="46.86581311" lon="7.54600637">
<ele>602.7000122070313</ele>
<time>2011-03-09T11:09:45Z</time>
<extensions>
<gpx10:speed>1.25</gpx10:speed>
<ogt10:accuracy>10.0</ogt10:accuracy>
<gpx10:course>349.29998779296875</gpx10:course></extensions>
</trkpt>
<trkpt lat="46.86599647" lon="7.54595779">
<ele>593.7000122070313</ele>
<time>2011-03-09T11:10:08Z</time>
<extensions>
<gpx10:speed>0.5</gpx10:speed>
<ogt10:accuracy>9.0</ogt10:accuracy>
<gpx10:course>350.29998779296875</gpx10:course></extensions>
</trkpt>
<trkpt lat="46.86610322" lon="7.54588399">
<ele>594.2000122070313</ele>
<time>2011-03-09T11:10:22Z</time>
<extensions>
<gpx10:speed>0.5</gpx10:speed>
<ogt10:accuracy>9.0</ogt10:accuracy>
<gpx10:course>21.799999237060547</gpx10:course></extensions>
</trkpt>
<trkpt lat="46.86690912" lon="7.54588012">
<ele>575.5999755859375</ele>
<time>2011-03-09T11:12:03Z</time>
<extensions>
<gpx10:speed>0.5</gpx10:speed>
<ogt10:accuracy>11.0</ogt10:accuracy>
<gpx10:course>20.899999618530273</gpx10:course></extensions>
</trkpt>
<trkpt lat="46.86695984" lon="7.54605782">
<ele>574.2000122070313</ele>
<time>2011-03-09T11:12:13Z</time>
<extensions>
<gpx10:speed>1.5</gpx10:speed>
<ogt10:accuracy>13.0</ogt10:accuracy>
<gpx10:course>73.80000305175781</gpx10:course></extensions>
</trkpt>
<trkpt lat="46.86697823" lon="7.54624244">
<ele>572.4000244140625</ele>
<time>2011-03-09T11:12:22Z</time>
<extensions>
<gpx10:speed>1.0</gpx10:speed>
<ogt10:accuracy>8.0</ogt10:accuracy>
<gpx10:course>61.599998474121094</gpx10:course></extensions>
</trkpt>
<trkpt lat="46.86699201" lon="7.54637409">
<ele>570.0</ele>
<time>2011-03-09T11:12:28Z</time>
<extensions>
<gpx10:speed>1.0</gpx10:speed>
<ogt10:accuracy>6.0</ogt10:accuracy>
<gpx10:course>73.5999984741211</gpx10:course></extensions>
</trkpt>
<trkpt lat="46.86704498" lon="7.54651587">
<ele>568.2000122070313</ele>
<time>2011-03-09T11:12:39Z</time>
<extensions>
<gpx10:speed>0.75</gpx10:speed>
<ogt10:accuracy>7.0</ogt10:accuracy>
<gpx10:course>63.900001525878906</gpx10:course></extensions>
</trkpt>
<trkpt lat="46.86711281" lon="7.54660704">
<ele>570.2000122070313</ele>
<time>2011-03-09T11:12:51Z</time>
<extensions>
<gpx10:speed>0.75</gpx10:speed>
<ogt10:accuracy>7.0</ogt10:accuracy>
<gpx10:course>23.899999618530273</gpx10:course></extensions>
</trkpt>
<trkpt lat="46.8670703" lon="7.54673617">
<ele>567.2999877929688</ele>
<time>2011-03-09T11:13:00Z</time>
<extensions>
<gpx10:speed>1.0</gpx10:speed>
<ogt10:accuracy>8.0</ogt10:accuracy>
<gpx10:course>140.10000610351563</gpx10:course></extensions>
</trkpt>
<trkpt lat="46.86699106" lon="7.54682314">
<ele>564.4000244140625</ele>
<time>2011-03-09T11:13:15Z</time>
<extensions>
<gpx10:speed>0.5</gpx10:speed>
<ogt10:accuracy>8.0</ogt10:accuracy>
<gpx10:course>159.1999969482422</gpx10:course></extensions>
</trkpt>
<trkpt lat="46.86688963" lon="7.54690092">
<ele>566.4000244140625</ele>
<time>2011-03-09T11:13:26Z</time>
<extensions>
<gpx10:speed>0.25</gpx10:speed>
<ogt10:accuracy>8.0</ogt10:accuracy>
<gpx10:course>184.60000610351563</gpx10:course></extensions>
</trkpt>
<trkpt lat="46.8667908" lon="7.5469054">
<ele>566.5</ele>
<time>2011-03-09T11:13:38Z</time>
<extensions>
<gpx10:speed>0.25</gpx10:speed>
<ogt10:accuracy>8.0</ogt10:accuracy>
<gpx10:course>184.60000610351563</gpx10:course></extensions>
</trkpt>
<trkpt lat="46.86678342" lon="7.54698992">
<ele>565.2999877929688</ele>
<time>2011-03-09T11:14:07Z</time>
<extensions>
<gpx10:speed>0.5</gpx10:speed>
<ogt10:accuracy>7.0</ogt10:accuracy>
<gpx10:course>184.60000610351563</gpx10:course></extensions>
</trkpt>
<trkpt lat="46.86675532" lon="7.54685973">
<ele>571.0999755859375</ele>
<time>2011-03-09T11:14:43Z</time>
<extensions>
<gpx10:speed>0.75</gpx10:speed>
<ogt10:accuracy>10.0</ogt10:accuracy>
<gpx10:course>281.1000061035156</gpx10:course></extensions>
</trkpt>
</trkseg>
</trk>
</gpx>